createdAt,value
2019-03-22T00:04:38.875Z,7.40
2019-03-22T00:07:28.345Z,7.32
2019-03-22T00:10:26.466Z,7.19
2019-03-22T00:27:16.069Z,6.89
2019-03-22T01:25:14.052Z,6.45
2019-03-22T01:27:16.109Z,6.53
2019-03-22T02:30:41.442Z,6.04
2019-03-22T02:33:35.164Z,5.90
2019-03-22T02:36:51.398Z,5.97
2019-03-22T02:39:23.129Z,5.99
2019-03-22T02:42:03.601Z,5.92
2019-03-22T02:44:52.948Z,5.94
2019-03-22T02:47:34.751Z,5.88
2019-03-22T02:50:19.957Z,5.77
2019-03-22T02:53:10.051Z,5.79
2019-03-22T02:55:49.128Z,5.75
2019-03-22T02:58:47.865Z,5.79
2019-03-22T03:01:35.071Z,5.82
2019-03-22T03:10:56.916Z,5.83
2019-03-22T03:14:23.886Z,5.86
2019-03-22T03:20:54.301Z,5.81
2019-03-22T03:23:22.331Z,5.75
2019-03-22T03:25:50.294Z,5.67
2019-03-22T03:28:36.128Z,5.59
2019-03-22T03:30:55.411Z,5.61
2019-03-22T03:33:23.550Z,5.63
2019-03-22T03:35:51.728Z,5.60
2019-03-22T03:38:19.752Z,5.44
2019-03-22T03:40:47.702Z,5.33
2019-03-22T03:43:15.791Z,5.45
2019-03-22T03:45:43.769Z,5.53
2019-03-22T03:48:14.255Z,5.56
2019-03-22T03:50:42.305Z,5.52
2019-03-22T03:53:12.606Z,5.51
2019-03-22T03:55:40.628Z,5.49
2019-03-22T03:58:11.452Z,5.46
2019-03-22T04:00:46.078Z,5.48
2019-03-22T04:03:14.095Z,5.38
2019-03-22T04:05:49.869Z,5.51
2019-03-22T04:08:20.564Z,5.55
2019-03-22T04:10:48.687Z,5.60
2019-03-22T04:13:19.054Z,5.67
2019-03-22T04:15:47.296Z,5.72
2019-03-22T04:18:18.225Z,5.79
2019-03-22T04:20:46.273Z,5.78
2019-03-22T04:23:14.314Z,5.67
2019-03-22T04:25:45.148Z,5.71
2019-03-22T04:28:18.191Z,5.66
2019-03-22T04:30:46.342Z,5.63
2019-03-22T04:33:14.514Z,5.65
2019-03-22T04:35:45.443Z,5.65
2019-03-22T04:38:17.077Z,5.65
2019-03-22T04:40:45.082Z,5.56
2019-03-22T04:43:15.027Z,5.59
2019-03-22T04:45:44.242Z,5.60
2019-03-22T04:48:20.560Z,5.60
2019-03-22T04:50:49.072Z,5.65
2019-03-22T04:53:21.638Z,5.59
2019-03-22T04:55:56.427Z,5.54
2019-03-22T04:58:26.521Z,5.47
2019-03-22T05:01:03.119Z,5.55
2019-03-22T05:03:34.140Z,5.64
2019-03-22T05:06:02.929Z,5.74
2019-03-22T05:08:36.762Z,5.42
2019-03-22T05:11:09.562Z,5.60
2019-03-22T05:13:42.065Z,5.78
2019-03-22T05:16:11.746Z,5.77
2019-03-22T05:18:43.898Z,5.79
2019-03-22T05:21:13.387Z,5.89
2019-03-22T05:23:42.131Z,5.84
2019-03-22T05:26:12.837Z,5.86
2019-03-22T05:28:45.720Z,5.90
2019-03-22T05:31:50.344Z,5.85
2019-03-22T05:34:38.100Z,5.87
2019-03-22T05:37:06.152Z,5.78
2019-03-22T05:39:36.993Z,5.67
2019-03-22T05:42:06.876Z,5.48
2019-03-22T05:44:37.159Z,5.21
2019-03-22T05:47:10.122Z,5.14
2019-03-22T05:49:39.589Z,5.19
2019-03-22T05:52:07.621Z,5.21
2019-03-22T05:54:37.096Z,5.06
2019-03-22T05:57:13.244Z,4.97
2019-03-22T05:59:42.898Z,5.21
2019-03-22T06:02:08.283Z,5.16
2019-03-22T06:04:36.343Z,5.37
2019-03-22T06:07:14.221Z,5.36
2019-03-22T06:09:55.045Z,5.17
2019-03-22T06:17:23.846Z,5.47
2019-03-22T06:19:52.098Z,5.64
2019-03-22T06:22:23.357Z,5.74
2019-03-22T06:24:57.026Z,5.75
2019-03-22T06:27:26.887Z,5.75
2019-03-22T06:37:40.900Z,6.00
2019-03-22T06:40:49.636Z,6.11
2019-03-22T06:43:28.842Z,6.20
2019-03-22T06:46:28.293Z,6.22
2019-03-22T06:49:44.380Z,6.42
2019-03-22T06:52:39.591Z,6.51
2019-03-22T07:23:10.626Z,8.91
2019-03-22T07:29:08.966Z,9.96
2019-03-22T07:32:30.575Z,10.42
2019-03-22T07:38:58.744Z,11.25
2019-03-22T07:53:12.782Z,13.62
2019-03-22T08:04:42.841Z,14.40
2019-03-22T08:07:41.091Z,14.75
2019-03-22T08:10:10.093Z,15.89
2019-03-22T08:12:51.673Z,14.77
2019-03-22T08:15:53.920Z,13.58
2019-03-22T08:19:43.705Z,13.27
2019-03-22T08:21:51.056Z,12.59
2019-03-22T08:24:45.962Z,13.14
2019-03-22T08:41:28.441Z,14.70
2019-03-22T08:44:06.543Z,15.22
2019-03-22T08:46:34.761Z,15.69
2019-03-22T08:49:03.042Z,16.42
2019-03-22T08:51:31.543Z,15.16
2019-03-22T08:54:10.797Z,16.51
2019-03-22T08:56:39.021Z,16.11
2019-03-22T08:59:07.465Z,16.27
2019-03-22T09:01:36.025Z,15.92
2019-03-22T09:04:04.641Z,15.18
2019-03-22T09:06:36.500Z,15.18
2019-03-22T09:09:08.060Z,14.38
2019-03-22T09:11:40.448Z,14.61
2019-03-22T09:14:23.124Z,14.91
2019-03-22T09:16:47.045Z,14.75
2019-03-22T09:19:15.382Z,14.75
2019-03-22T09:21:43.794Z,14.77
2019-03-22T09:24:23.024Z,14.64
2019-03-22T09:27:11.288Z,14.75
2019-03-22T09:29:47.322Z,14.63
2019-03-22T09:32:25.837Z,14.79
2019-03-22T09:35:01.429Z,14.91
2019-03-22T09:37:49.433Z,14.69
2019-03-22T09:40:26.802Z,15.46
2019-03-22T09:42:54.962Z,14.86
2019-03-22T09:45:23.122Z,15.24
2019-03-22T09:47:51.525Z,15.43
2019-03-22T09:50:19.802Z,15.38
2019-03-22T09:52:48.022Z,15.49
2019-03-22T09:55:16.622Z,15.53
2019-03-22T09:57:44.866Z,15.54
2019-03-22T10:00:18.780Z,15.78
2019-03-22T10:02:47.055Z,15.88
2019-03-22T10:05:17.563Z,15.84
2019-03-22T10:07:45.701Z,15.89
2019-03-22T10:10:13.891Z,15.79
2019-03-22T10:12:42.025Z,15.93
2019-03-22T10:15:10.205Z,15.84
2019-03-22T10:17:40.281Z,15.86
2019-03-22T10:20:11.297Z,16.12
2019-03-22T10:22:42.481Z,16.29
2019-03-22T10:25:10.641Z,16.31
2019-03-22T10:27:38.842Z,16.34
2019-03-22T10:30:07.124Z,16.55
2019-03-22T10:32:35.185Z,16.45
2019-03-22T10:35:03.641Z,16.68
2019-03-22T10:37:31.786Z,16.68
2019-03-22T10:39:59.962Z,16.66
2019-03-22T10:42:28.156Z,16.67
2019-03-22T10:44:56.331Z,16.89
2019-03-22T10:47:24.568Z,16.71
2019-03-22T10:49:52.871Z,17.28
2019-03-22T10:52:23.862Z,17.26
2019-03-22T10:54:52.001Z,17.19
2019-03-22T10:57:20.126Z,16.92
2019-03-22T10:59:48.320Z,17.16
2019-03-22T11:02:16.686Z,17.28
2019-03-22T11:04:44.882Z,17.32
2019-03-22T11:07:19.082Z,17.27
2019-03-22T11:09:50.081Z,17.41
2019-03-22T11:12:57.156Z,17.65
2019-03-22T11:15:25.503Z,17.64
2019-03-22T11:21:30.868Z,19.39
2019-03-22T11:23:59.170Z,19.92
2019-03-22T11:26:27.288Z,19.65
2019-03-22T11:28:57.641Z,20.14
2019-03-22T11:31:28.551Z,20.11
2019-03-22T11:33:55.861Z,19.69
2019-03-22T11:36:24.121Z,19.78
2019-03-22T11:38:52.301Z,19.30
2019-03-22T11:41:27.318Z,19.16
2019-03-22T11:43:57.022Z,18.54
2019-03-22T11:46:33.161Z,18.82
2019-03-22T11:49:01.508Z,18.59
2019-03-22T11:51:29.681Z,18.63
2019-03-22T11:53:57.801Z,18.83
2019-03-22T11:56:25.921Z,19.07
2019-03-22T11:58:54.181Z,19.35
2019-03-22T12:01:28.145Z,19.27
2019-03-22T12:03:57.361Z,19.54
2019-03-22T12:06:27.308Z,19.35
2019-03-22T12:08:55.743Z,19.56
2019-03-22T12:11:23.842Z,19.51
2019-03-22T12:13:52.121Z,19.17
2019-03-22T12:16:57.701Z,19.32
2019-03-22T12:19:40.379Z,19.56
2019-03-22T12:22:38.529Z,19.51
2019-03-22T12:25:30.199Z,19.70
2019-03-22T12:31:23.561Z,19.64
2019-03-22T12:33:51.552Z,19.91
2019-03-22T12:40:00.782Z,19.96
2019-03-22T12:53:59.142Z,19.87
2019-03-22T12:56:30.482Z,19.92
2019-03-22T12:59:05.973Z,19.82
2019-03-22T13:02:04.689Z,19.92
2019-03-22T13:05:01.281Z,20.03
2019-03-22T13:11:14.662Z,20.01
2019-03-22T13:13:48.561Z,20.13
2019-03-22T13:16:18.921Z,19.82
2019-03-22T13:18:58.321Z,19.69
2019-03-22T13:21:26.441Z,19.72
2019-03-22T13:23:54.582Z,19.73
2019-03-22T13:26:22.663Z,20.11
2019-03-22T13:28:50.959Z,19.89
2019-03-22T13:31:19.221Z,19.89
2019-03-22T13:33:52.024Z,20.07
2019-03-22T13:36:20.322Z,20.21
2019-03-22T13:38:48.720Z,20.39
2019-03-22T13:41:16.941Z,20.51
2019-03-22T13:43:45.059Z,20.49
2019-03-22T13:46:13.261Z,20.61
2019-03-22T13:48:41.365Z,20.47
2019-03-22T13:51:09.522Z,20.40
2019-03-22T13:53:37.562Z,20.24
2019-03-22T13:56:05.781Z,20.44
2019-03-22T14:04:49.943Z,20.35
2019-03-22T14:07:18.560Z,20.29
2019-03-22T14:09:46.841Z,20.10
2019-03-22T14:12:15.061Z,20.06
2019-03-22T14:22:56.040Z,19.96
2019-03-22T14:33:23.101Z,20.01
2019-03-22T14:37:09.319Z,20.11
2019-03-22T14:44:06.439Z,20.29
2019-03-22T15:20:29.948Z,20.05
2019-03-22T15:24:22.221Z,20.05
2019-03-22T15:27:11.880Z,20.03
2019-03-22T15:30:25.415Z,20.02
2019-03-22T15:37:11.340Z,19.81
2019-03-22T15:39:59.181Z,19.85
2019-03-22T15:42:28.462Z,19.74
2019-03-22T15:44:56.869Z,19.78
2019-03-22T15:47:26.602Z,19.75
2019-03-22T15:49:55.548Z,19.81
2019-03-22T15:52:23.864Z,19.75
2019-03-22T15:54:53.881Z,19.80
2019-03-22T15:57:22.200Z,19.80
2019-03-22T15:59:53.441Z,19.79
2019-03-22T16:02:22.021Z,19.74
2019-03-22T16:04:50.342Z,19.71
2019-03-22T16:07:18.601Z,19.70
2019-03-22T16:09:46.722Z,19.66
2019-03-22T16:12:14.880Z,19.62
2019-03-22T16:14:42.981Z,19.60
2019-03-22T16:17:11.162Z,19.64
2019-03-22T16:19:39.725Z,19.69
2019-03-22T16:22:08.003Z,19.60
2019-03-22T16:24:36.142Z,19.53
2019-03-22T16:27:04.542Z,19.57
2019-03-22T16:29:32.682Z,19.52
2019-03-22T16:32:00.889Z,19.48
2019-03-22T16:34:28.961Z,19.41
2019-03-22T16:37:00.262Z,19.46
2019-03-22T16:39:30.102Z,19.58
2019-03-22T16:41:58.501Z,19.56
2019-03-22T16:44:26.680Z,19.56
2019-03-22T16:46:54.841Z,19.56
2019-03-22T16:49:22.801Z,19.52
2019-03-22T16:51:50.821Z,19.44
2019-03-22T16:54:18.756Z,19.19
2019-03-22T16:56:46.827Z,19.06
2019-03-22T16:59:14.849Z,19.04
2019-03-22T17:01:42.972Z,19.01
2019-03-22T17:04:11.337Z,19.02
2019-03-22T17:06:39.331Z,19.07
2019-03-22T17:09:07.496Z,19.07
2019-03-22T17:11:35.768Z,19.06
2019-03-22T17:14:04.021Z,18.95
2019-03-22T17:16:32.191Z,18.74
2019-03-22T17:19:00.656Z,18.67
2019-03-22T17:21:28.852Z,18.57
2019-03-22T17:23:57.149Z,18.48
2019-03-22T17:26:26.647Z,18.33
2019-03-22T17:28:54.882Z,18.24
2019-03-22T17:31:23.077Z,18.13
2019-03-22T17:33:51.456Z,18.04
2019-03-22T17:36:19.745Z,18.01
2019-03-22T17:38:50.154Z,17.94
2019-03-22T17:41:20.991Z,17.79
2019-03-22T17:43:49.170Z,17.70
2019-03-22T17:46:17.272Z,17.69
2019-03-22T17:48:45.971Z,17.66
2019-03-22T17:51:14.421Z,17.60
2019-03-22T17:53:43.058Z,17.53
2019-03-22T17:56:11.322Z,17.45
2019-03-22T17:58:43.867Z,17.35
2019-03-22T18:01:12.447Z,17.24
2019-03-22T18:03:41.114Z,17.13
2019-03-22T18:06:09.706Z,16.95
2019-03-22T18:08:38.002Z,16.85
2019-03-22T18:11:10.174Z,16.68
2019-03-22T18:13:38.866Z,16.53
2019-03-22T18:16:13.377Z,16.33
2019-03-22T18:18:45.906Z,16.29
2019-03-22T18:22:39.690Z,15.94
2019-03-22T18:28:37.857Z,15.62
2019-03-22T18:32:10.328Z,15.41
2019-03-22T18:35:05.096Z,15.28
2019-03-22T18:37:33.606Z,15.24
2019-03-22T18:40:02.549Z,15.16
2019-03-22T18:42:31.037Z,15.28
2019-03-22T18:44:59.539Z,15.11
2019-03-22T18:47:28.077Z,14.89
2019-03-22T18:49:56.595Z,14.91
2019-03-22T18:52:25.137Z,15.20
2019-03-22T18:54:57.041Z,15.53
2019-03-22T18:57:25.748Z,15.44
2019-03-22T18:59:54.227Z,15.75
2019-03-22T19:02:25.568Z,16.05
2019-03-22T19:04:54.187Z,16.22
2019-03-22T19:07:22.732Z,16.31
2019-03-22T19:09:51.259Z,16.42
2019-03-22T19:12:19.796Z,16.52
2019-03-22T19:14:48.360Z,16.60
2019-03-22T19:17:16.876Z,16.69
2019-03-22T19:19:45.452Z,16.73
2019-03-22T19:22:13.937Z,16.81
2019-03-22T19:24:42.479Z,16.79
2019-03-22T19:27:10.927Z,16.81
2019-03-22T19:29:39.867Z,16.80
2019-03-22T19:32:13.733Z,16.85
2019-03-22T19:34:40.642Z,16.85
2019-03-22T19:37:12.239Z,16.82
2019-03-22T19:39:44.006Z,16.85
2019-03-22T19:42:13.850Z,16.80
2019-03-22T19:44:42.417Z,16.75
2019-03-22T19:47:11.954Z,16.68
2019-03-22T19:49:40.993Z,16.60
2019-03-22T19:52:09.912Z,16.58
2019-03-22T19:54:41.127Z,16.49
2019-03-22T19:57:19.446Z,16.40
2019-03-22T19:59:48.056Z,16.40
2019-03-22T20:02:16.655Z,16.37
2019-03-22T20:04:48.079Z,16.33
2019-03-22T20:07:26.398Z,16.27
2019-03-22T20:09:47.218Z,16.24
2019-03-22T20:12:15.937Z,16.12
2019-03-22T20:14:44.562Z,16.06
2019-03-22T20:17:13.096Z,15.97
2019-03-22T20:19:44.338Z,15.97
2019-03-22T20:22:13.155Z,15.89
2019-03-22T20:24:42.417Z,15.89
2019-03-22T20:27:15.707Z,15.86
2019-03-22T20:29:44.567Z,15.79
2019-03-22T20:32:13.242Z,15.72
2019-03-22T20:34:41.988Z,15.64
2019-03-22T20:37:12.022Z,15.60
2019-03-22T20:39:45.651Z,15.53
2019-03-22T20:42:40.206Z,15.48
2019-03-22T20:45:11.546Z,15.38
2019-03-22T20:47:39.902Z,15.32
2019-03-22T20:50:10.712Z,15.24
2019-03-22T20:52:41.308Z,15.21
2019-03-22T20:55:10.546Z,15.16
2019-03-22T20:57:38.977Z,15.13
2019-03-22T21:00:13.317Z,15.12
2019-03-22T21:02:43.236Z,15.06
2019-03-22T21:05:14.442Z,14.97
2019-03-22T21:07:42.922Z,14.95
2019-03-22T21:10:11.782Z,14.93
2019-03-22T21:12:40.317Z,14.86
2019-03-22T21:15:08.768Z,14.79
2019-03-22T21:17:37.119Z,14.72
2019-03-22T21:20:06.446Z,14.73
2019-03-22T21:22:34.859Z,14.73
2019-03-22T21:25:03.682Z,14.66
2019-03-22T21:27:32.096Z,14.63
2019-03-22T21:30:03.570Z,14.60
2019-03-22T21:32:31.874Z,14.62
2019-03-22T21:35:03.117Z,14.65
2019-03-22T21:37:31.482Z,14.68
2019-03-22T21:39:59.973Z,14.62
2019-03-22T21:42:33.247Z,14.67
2019-03-22T21:45:01.707Z,14.65
2019-03-22T21:47:33.704Z,14.66
2019-03-22T21:50:11.615Z,14.58
2019-03-22T21:52:48.915Z,14.61
2019-03-22T21:55:19.766Z,14.60
2019-03-22T21:57:47.855Z,14.52
2019-03-22T22:00:16.993Z,14.56
2019-03-22T22:02:45.213Z,14.60
2019-03-22T22:05:14.460Z,14.56
2019-03-22T22:07:42.896Z,14.59
2019-03-22T22:10:10.891Z,14.63
2019-03-22T22:12:39.025Z,14.56
2019-03-22T22:15:09.807Z,14.55
2019-03-22T22:17:39.365Z,14.60
2019-03-22T22:20:07.691Z,14.61
2019-03-22T22:22:35.687Z,14.58
2019-03-22T22:25:04.043Z,14.54
2019-03-22T22:27:32.016Z,14.52
2019-03-22T22:30:00.041Z,14.39
2019-03-22T22:32:28.026Z,14.43
2019-03-22T22:34:56.061Z,14.34
2019-03-22T22:37:24.246Z,14.36
2019-03-22T22:39:52.658Z,14.35
2019-03-22T22:42:20.970Z,14.30
2019-03-22T22:44:49.036Z,14.19
2019-03-22T22:47:17.411Z,14.16
2019-03-22T22:49:45.556Z,14.03
2019-03-22T22:52:13.701Z,13.98
2019-03-22T22:54:41.726Z,13.97
2019-03-22T22:57:09.775Z,14.01
2019-03-22T22:59:37.796Z,13.95
2019-03-22T23:02:06.004Z,13.90
2019-03-22T23:04:34.000Z,13.90
2019-03-22T23:07:02.158Z,13.88
2019-03-22T23:09:30.101Z,13.82
2019-03-22T23:11:58.181Z,13.80
2019-03-22T23:14:26.201Z,13.74
2019-03-22T23:16:54.231Z,13.69
2019-03-22T23:19:22.261Z,13.64
2019-03-22T23:21:50.261Z,13.60
2019-03-22T23:24:19.536Z,13.48
2019-03-22T23:26:48.516Z,13.43
2019-03-22T23:29:17.252Z,13.41
2019-03-22T23:31:58.798Z,13.38
2019-03-22T23:34:26.876Z,13.39
2019-03-22T23:36:54.871Z,13.42
2019-03-22T23:39:22.956Z,13.37
2019-03-22T23:41:50.966Z,13.27
2019-03-22T23:44:21.737Z,13.19
2019-03-22T23:46:49.778Z,13.07
2019-03-22T23:49:17.814Z,13.04
2019-03-22T23:51:45.929Z,13.00
2019-03-22T23:54:13.947Z,12.97
2019-03-22T23:56:42.152Z,12.89
2019-03-22T23:59:10.220Z,12.87
